sensor_id;sensor_type;location;lat;lon;timestamp;pressure;altitude;pressure_sealevel;temperature;humidity
15229;BME280;7717;47.792;12.076;2023-04-05T00:01:38;96659.19;;;-3.52;100.00
15229;BME280;7717;47.792;12.076;2023-04-05T00:04:04;96653.22;;;-3.54;100.00
15229;BME280;7717;47.792;12.076;2023-04-05T00:06:37;96652.09;;;-3.59;100.00
15229;BME280;7717;47.792;12.076;2023-04-05T00:09:08;96652.16;;;-3.73;100.00
15229;BME280;7717;47.792;12.076;2023-04-05T00:11:35;96650.28;;;-3.62;100.00
15229;BME280;7717;47.792;12.076;2023-04-05T00:14:02;96644.44;;;-3.48;100.00
15229;BME280;7717;47.792;12.076;2023-04-05T00:16:28;96651.09;;;-3.48;100.00
15229;BME280;7717;47.792;12.076;2023-04-05T00:18:59;96644.78;;;-3.41;100.00
15229;BME280;7717;47.792;12.076;2023-04-05T00:21:26;96646.00;;;-3.50;100.00
15229;BME280;7717;47.792;12.076;2023-04-05T00:23:55;96641.31;;;-3.58;100.00
15229;BME280;7717;47.792;12.076;2023-04-05T00:26:26;96648.56;;;-3.63;100.00
15229;BME280;7717;47.792;12.076;2023-04-05T00:29:05;96647.69;;;-3.49;100.00
15229;BME280;7717;47.792;12.076;2023-04-05T00:31:30;96625.78;;;-3.68;100.00
15229;BME280;7717;47.792;12.076;2023-04-05T00:33:56;96642.06;;;-3.59;100.00
15229;BME280;7717;47.792;12.076;2023-04-05T00:36:24;96637.78;;;-3.62;100.00
15229;BME280;7717;47.792;12.076;2023-04-05T00:38:50;96634.31;;;-3.64;100.00
15229;BME280;7717;47.792;12.076;2023-04-05T00:41:16;96635.88;;;-3.66;100.00
15229;BME280;7717;47.792;12.076;2023-04-05T00:43:41;96637.16;;;-3.73;100.00
15229;BME280;7717;47.792;12.076;2023-04-05T00:46:07;96635.81;;;-3.53;100.00
15229;BME280;7717;47.792;12.076;2023-04-05T00:48:34;96637.44;;;-3.53;100.00
15229;BME280;7717;47.792;12.076;2023-04-05T00:50:59;96630.25;;;-3.47;100.00
15229;BME280;7717;47.792;12.076;2023-04-05T00:53:25;96630.97;;;-3.50;100.00
15229;BME280;7717;47.792;12.076;2023-04-05T00:55:54;96630.72;;;-3.54;100.00
15229;BME280;7717;47.792;12.076;2023-04-05T00:58:20;96616.66;;;-3.52;100.00
15229;BME280;7717;47.792;12.076;2023-04-05T01:01:16;96630.44;;;-3.44;100.00
15229;BME280;7717;47.792;12.076;2023-04-05T01:03:50;96631.81;;;-3.64;100.00
15229;BME280;7717;47.792;12.076;2023-04-05T01:09:45;96628.91;;;-3.72;100.00
15229;BME280;7717;47.792;12.076;2023-04-05T01:12:16;96624.41;;;-3.77;100.00
15229;BME280;7717;47.792;12.076;2023-04-05T01:14:50;96622.75;;;-3.77;100.00
15229;BME280;7717;47.792;12.076;2023-04-05T01:17:21;96616.03;;;-3.78;100.00
15229;BME280;7717;47.792;12.076;2023-04-05T01:19:48;96621.53;;;-3.84;100.00
15229;BME280;7717;47.792;12.076;2023-04-05T01:30:35;96610.44;;;-4.17;100.00
15229;BME280;7717;47.792;12.076;2023-04-05T01:33:48;96613.81;;;-4.58;100.00
15229;BME280;7717;47.792;12.076;2023-04-05T01:36:28;96622.47;;;-4.53;100.00
15229;BME280;7717;47.792;12.076;2023-04-05T01:38:56;96606.84;;;-4.36;100.00
15229;BME280;7717;47.792;12.076;2023-04-05T01:41:23;96601.69;;;-4.39;100.00
15229;BME280;7717;47.792;12.076;2023-04-05T01:43:48;96604.72;;;-4.58;100.00
15229;BME280;7717;47.792;12.076;2023-04-05T01:46:13;96603.16;;;-4.56;100.00
15229;BME280;7717;47.792;12.076;2023-04-05T01:48:39;96603.47;;;-4.64;100.00
15229;BME280;7717;47.792;12.076;2023-04-05T01:51:04;96602.59;;;-4.65;100.00
15229;BME280;7717;47.792;12.076;2023-04-05T01:53:30;96595.84;;;-4.53;100.00
15229;BME280;7717;47.792;12.076;2023-04-05T01:56:01;96581.25;;;-4.60;100.00
15229;BME280;7717;47.792;12.076;2023-04-05T01:58:27;96589.72;;;-4.58;100.00
15229;BME280;7717;47.792;12.076;2023-04-05T02:00:54;96584.66;;;-4.73;100.00
15229;BME280;7717;47.792;12.076;2023-04-05T02:03:20;96582.53;;;-4.66;100.00
15229;BME280;7717;47.792;12.076;2023-04-05T02:05:46;96595.81;;;-4.81;100.00
15229;BME280;7717;47.792;12.076;2023-04-05T02:08:11;96595.25;;;-4.90;100.00
15229;BME280;7717;47.792;12.076;2023-04-05T02:10:38;96586.69;;;-4.80;100.00
15229;BME280;7717;47.792;12.076;2023-04-05T02:13:04;96588.63;;;-4.76;100.00
15229;BME280;7717;47.792;12.076;2023-04-05T02:15:30;96583.34;;;-4.81;100.00
15229;BME280;7717;47.792;12.076;2023-04-05T02:17:57;96579.25;;;-4.94;100.00
15229;BME280;7717;47.792;12.076;2023-04-05T02:20:26;96574.34;;;-5.06;100.00
15229;BME280;7717;47.792;12.076;2023-04-05T02:22:53;96574.34;;;-5.06;100.00
15229;BME280;7717;47.792;12.076;2023-04-05T02:25:19;96570.03;;;-4.95;100.00
15229;BME280;7717;47.792;12.076;2023-04-05T02:27:44;96564.63;;;-4.88;100.00
15229;BME280;7717;47.792;12.076;2023-04-05T02:30:10;96572.38;;;-4.83;100.00
15229;BME280;7717;47.792;12.076;2023-04-05T02:32:38;96563.94;;;-4.85;100.00
15229;BME280;7717;47.792;12.076;2023-04-05T02:35:07;96567.25;;;-4.99;100.00
15229;BME280;7717;47.792;12.076;2023-04-05T02:37:32;96563.19;;;-4.97;100.00
15229;BME280;7717;47.792;12.076;2023-04-05T02:39:58;96568.00;;;-5.00;100.00
15229;BME280;7717;47.792;12.076;2023-04-05T02:42:23;96555.50;;;-4.87;100.00
15229;BME280;7717;47.792;12.076;2023-04-05T02:44:49;96548.88;;;-4.86;100.00
15229;BME280;7717;47.792;12.076;2023-04-05T02:47:15;96558.09;;;-4.85;100.00
15229;BME280;7717;47.792;12.076;2023-04-05T02:49:46;96542.66;;;-5.07;100.00
15229;BME280;7717;47.792;12.076;2023-04-05T02:52:11;96545.38;;;-5.17;100.00
15229;BME280;7717;47.792;12.076;2023-04-05T02:54:36;96549.63;;;-5.29;100.00
15229;BME280;7717;47.792;12.076;2023-04-05T02:57:02;96551.91;;;-5.46;100.00
15229;BME280;7717;47.792;12.076;2023-04-05T02:59:27;96554.72;;;-5.54;100.00
15229;BME280;7717;47.792;12.076;2023-04-05T03:01:53;96532.16;;;-5.43;100.00
15229;BME280;7717;47.792;12.076;2023-04-05T03:04:18;96533.28;;;-5.24;100.00
15229;BME280;7717;47.792;12.076;2023-04-05T03:06:43;96541.38;;;-5.28;100.00
15229;BME280;7717;47.792;12.076;2023-04-05T03:09:13;96532.81;;;-5.32;100.00
15229;BME280;7717;47.792;12.076;2023-04-05T03:11:38;96542.03;;;-5.31;100.00
15229;BME280;7717;47.792;12.076;2023-04-05T03:14:04;96537.22;;;-5.28;100.00
15229;BME280;7717;47.792;12.076;2023-04-05T03:16:29;96526.31;;;-5.30;100.00
15229;BME280;7717;47.792;12.076;2023-04-05T03:18:54;96532.72;;;-5.33;100.00
15229;BME280;7717;47.792;12.076;2023-04-05T03:21:21;96534.75;;;-5.28;100.00
15229;BME280;7717;47.792;12.076;2023-04-05T03:23:46;96532.34;;;-5.39;100.00
15229;BME280;7717;47.792;12.076;2023-04-05T03:26:12;96541.38;;;-5.42;100.00
15229;BME280;7717;47.792;12.076;2023-04-05T03:28:38;96541.94;;;-5.46;100.00
15229;BME280;7717;47.792;12.076;2023-04-05T03:31:10;96547.41;;;-5.51;100.00
15229;BME280;7717;47.792;12.076;2023-04-05T03:33:35;96547.59;;;-5.62;100.00
15229;BME280;7717;47.792;12.076;2023-04-05T03:36:03;96529.88;;;-5.53;100.00
15229;BME280;7717;47.792;12.076;2023-04-05T03:38:29;96543.09;;;-5.40;100.00
15229;BME280;7717;47.792;12.076;2023-04-05T03:40:56;96547.88;;;-5.30;100.00
15229;BME280;7717;47.792;12.076;2023-04-05T03:43:22;96545.66;;;-5.26;100.00
15229;BME280;7717;47.792;12.076;2023-04-05T03:45:47;96545.41;;;-5.44;100.00
15229;BME280;7717;47.792;12.076;2023-04-05T03:48:12;96541.00;;;-5.34;100.00
15229;BME280;7717;47.792;12.076;2023-04-05T03:50:38;96541.84;;;-5.47;100.00
15229;BME280;7717;47.792;12.076;2023-04-05T03:53:04;96546.53;;;-5.52;100.00
15229;BME280;7717;47.792;12.076;2023-04-05T03:55:30;96541.75;;;-5.49;100.00
15229;BME280;7717;47.792;12.076;2023-04-05T03:57:55;96543.09;;;-5.54;100.00
15229;BME280;7717;47.792;12.076;2023-04-05T04:00:21;96544.34;;;-5.61;100.00
15229;BME280;7717;47.792;12.076;2023-04-05T04:02:48;96540.78;;;-5.51;100.00
15229;BME280;7717;47.792;12.076;2023-04-05T04:05:15;96540.31;;;-5.58;100.00
15229;BME280;7717;47.792;12.076;2023-04-05T04:07:42;96542.78;;;-5.85;100.00
15229;BME280;7717;47.792;12.076;2023-04-05T04:10:10;96541.38;;;-5.68;100.00
15229;BME280;7717;47.792;12.076;2023-04-05T04:12:36;96539.16;;;-5.64;100.00
15229;BME280;7717;47.792;12.076;2023-04-05T04:15:03;96540.78;;;-5.78;100.00
15229;BME280;7717;47.792;12.076;2023-04-05T04:17:33;96537.53;;;-5.63;100.00
15229;BME280;7717;47.792;12.076;2023-04-05T04:19:59;96546.63;;;-5.77;100.00
15229;BME280;7717;47.792;12.076;2023-04-05T04:22:25;96544.31;;;-6.14;100.00
15229;BME280;7717;47.792;12.076;2023-04-05T04:24:51;96545.09;;;-6.27;100.00
15229;BME280;7717;47.792;12.076;2023-04-05T04:27:18;96534.59;;;-6.23;100.00
15229;BME280;7717;47.792;12.076;2023-04-05T04:29:46;96549.28;;;-6.14;100.00
15229;BME280;7717;47.792;12.076;2023-04-05T04:32:14;96543.06;;;-6.07;100.00
15229;BME280;7717;47.792;12.076;2023-04-05T04:34:40;96540.47;;;-6.09;100.00
15229;BME280;7717;47.792;12.076;2023-04-05T04:37:14;96544.59;;;-5.96;100.00
15229;BME280;7717;47.792;12.076;2023-04-05T04:39:47;96544.78;;;-6.06;100.00
15229;BME280;7717;47.792;12.076;2023-04-05T04:42:13;96549.75;;;-5.93;100.00
15229;BME280;7717;47.792;12.076;2023-04-05T04:44:46;96557.38;;;-5.78;100.00
15229;BME280;7717;47.792;12.076;2023-04-05T04:47:12;96551.13;;;-5.85;100.00
15229;BME280;7717;47.792;12.076;2023-04-05T04:49:38;96552.06;;;-5.96;100.00
15229;BME280;7717;47.792;12.076;2023-04-05T04:52:06;96552.84;;;-5.97;100.00
15229;BME280;7717;47.792;12.076;2023-04-05T04:54:33;96552.66;;;-5.87;100.00
15229;BME280;7717;47.792;12.076;2023-04-05T04:56:59;96542.47;;;-5.90;100.00
15229;BME280;7717;47.792;12.076;2023-04-05T04:59:26;96546.41;;;-5.80;100.00
15229;BME280;7717;47.792;12.076;2023-04-05T05:01:51;96546.41;;;-5.80;100.00
15229;BME280;7717;47.792;12.076;2023-04-05T05:04:17;96542.50;;;-5.76;100.00
15229;BME280;7717;47.792;12.076;2023-04-05T05:06:42;96545.97;;;-5.74;100.00
15229;BME280;7717;47.792;12.076;2023-04-05T05:09:08;96543.84;;;-5.68;100.00
15229;BME280;7717;47.792;12.076;2023-04-05T05:11:33;96541.94;;;-5.59;100.00
15229;BME280;7717;47.792;12.076;2023-04-05T05:13:59;96549.50;;;-5.44;100.00
15229;BME280;7717;47.792;12.076;2023-04-05T05:16:24;96539.25;;;-5.49;100.00
15229;BME280;7717;47.792;12.076;2023-04-05T05:18:50;96553.19;;;-5.39;100.00
15229;BME280;7717;47.792;12.076;2023-04-05T05:21:16;96551.81;;;-5.47;100.00
15229;BME280;7717;47.792;12.076;2023-04-05T05:23:42;96550.28;;;-5.32;100.00
15229;BME280;7717;47.792;12.076;2023-04-05T05:26:07;96551.06;;;-5.33;100.00
15229;BME280;7717;47.792;12.076;2023-04-05T05:28:33;96548.16;;;-5.26;100.00
15229;BME280;7717;47.792;12.076;2023-04-05T05:30:58;96556.69;;;-4.95;100.00
15229;BME280;7717;47.792;12.076;2023-04-05T05:33:23;96550.63;;;-4.99;100.00
15229;BME280;7717;47.792;12.076;2023-04-05T05:35:50;96556.78;;;-4.94;100.00
15229;BME280;7717;47.792;12.076;2023-04-05T05:38:16;96556.16;;;-4.76;100.00
15229;BME280;7717;47.792;12.076;2023-04-05T05:40:42;96554.13;;;-4.68;100.00
15229;BME280;7717;47.792;12.076;2023-04-05T05:43:07;96555.16;;;-4.65;100.00
15229;BME280;7717;47.792;12.076;2023-04-05T05:45:34;96556.66;;;-4.54;100.00
15229;BME280;7717;47.792;12.076;2023-04-05T05:48:00;96555.22;;;-4.50;100.00
15229;BME280;7717;47.792;12.076;2023-04-05T05:50:25;96548.56;;;-4.49;100.00
15229;BME280;7717;47.792;12.076;2023-04-05T05:52:50;96563.13;;;-4.14;100.00
15229;BME280;7717;47.792;12.076;2023-04-05T05:55:16;96559.44;;;-4.06;100.00
15229;BME280;7717;47.792;12.076;2023-04-05T05:57:41;96564.44;;;-3.91;100.00
15229;BME280;7717;47.792;12.076;2023-04-05T06:00:07;96563.44;;;-3.80;100.00
15229;BME280;7717;47.792;12.076;2023-04-05T06:02:35;96547.63;;;-3.78;100.00
15229;BME280;7717;47.792;12.076;2023-04-05T06:05:00;96565.31;;;-3.60;100.00
15229;BME280;7717;47.792;12.076;2023-04-05T06:07:28;96557.28;;;-3.40;100.00
15229;BME280;7717;47.792;12.076;2023-04-05T06:09:54;96544.59;;;-3.28;100.00
15229;BME280;7717;47.792;12.076;2023-04-05T06:12:20;96539.34;;;-3.16;100.00
15229;BME280;7717;47.792;12.076;2023-04-05T06:14:45;96545.28;;;-2.99;100.00
15229;BME280;7717;47.792;12.076;2023-04-05T06:17:11;96545.69;;;-2.92;100.00
15229;BME280;7717;47.792;12.076;2023-04-05T06:19:36;96536.75;;;-2.86;100.00
15229;BME280;7717;47.792;12.076;2023-04-05T06:22:02;96536.81;;;-2.70;100.00
15229;BME280;7717;47.792;12.076;2023-04-05T06:24:27;96545.03;;;-2.56;100.00
15229;BME280;7717;47.792;12.076;2023-04-05T06:26:56;96538.91;;;-2.45;100.00
15229;BME280;7717;47.792;12.076;2023-04-05T06:29:21;96536.81;;;-2.37;100.00
15229;BME280;7717;47.792;12.076;2023-04-05T06:31:47;96542.38;;;-2.26;100.00
15229;BME280;7717;47.792;12.076;2023-04-05T06:34:12;96536.84;;;-2.19;100.00
15229;BME280;7717;47.792;12.076;2023-04-05T06:36:38;96533.09;;;-2.11;100.00
15229;BME280;7717;47.792;12.076;2023-04-05T06:39:04;96532.41;;;-2.25;100.00
15229;BME280;7717;47.792;12.076;2023-04-05T06:41:29;96535.69;;;-2.09;100.00
15229;BME280;7717;47.792;12.076;2023-04-05T06:43:54;96531.91;;;-2.01;100.00
15229;BME280;7717;47.792;12.076;2023-04-05T06:46:20;96534.94;;;-2.25;100.00
15229;BME280;7717;47.792;12.076;2023-04-05T06:48:46;96535.81;;;-1.90;100.00
15229;BME280;7717;47.792;12.076;2023-04-05T06:51:12;96532.66;;;-1.86;100.00
15229;BME280;7717;47.792;12.076;2023-04-05T06:53:38;96496.94;;;-1.98;100.00
15229;BME280;7717;47.792;12.076;2023-04-05T06:56:03;96528.09;;;-1.58;100.00
15229;BME280;7717;47.792;12.076;2023-04-05T06:58:29;96525.03;;;-1.53;100.00
15229;BME280;7717;47.792;12.076;2023-04-05T07:00:55;96529.44;;;-1.83;100.00
15229;BME280;7717;47.792;12.076;2023-04-05T07:03:20;96521.56;;;-1.55;100.00
15229;BME280;7717;47.792;12.076;2023-04-05T07:05:57;96519.44;;;-1.65;100.00
15229;BME280;7717;47.792;12.076;2023-04-05T07:08:24;96508.94;;;-1.56;100.00
15229;BME280;7717;47.792;12.076;2023-04-05T07:10:50;96514.63;;;-1.24;100.00
15229;BME280;7717;47.792;12.076;2023-04-05T07:13:16;96509.06;;;-0.81;100.00
15229;BME280;7717;47.792;12.076;2023-04-05T07:15:44;96518.06;;;-0.67;100.00
15229;BME280;7717;47.792;12.076;2023-04-05T07:18:10;96523.75;;;-0.51;100.00
15229;BME280;7717;47.792;12.076;2023-04-05T07:20:36;96515.34;;;-0.32;100.00
15229;BME280;7717;47.792;12.076;2023-04-05T07:23:01;96518.78;;;-0.11;100.00
15229;BME280;7717;47.792;12.076;2023-04-05T07:25:27;96507.31;;;-0.24;100.00
15229;BME280;7717;47.792;12.076;2023-04-05T07:27:52;96511.97;;;-0.33;100.00
15229;BME280;7717;47.792;12.076;2023-04-05T07:30:18;96503.44;;;-0.17;100.00
15229;BME280;7717;47.792;12.076;2023-04-05T07:32:43;96506.19;;;-0.11;100.00
15229;BME280;7717;47.792;12.076;2023-04-05T07:35:09;96500.34;;;0.10;100.00
15229;BME280;7717;47.792;12.076;2023-04-05T07:37:34;96492.47;;;0.23;100.00
15229;BME280;7717;47.792;12.076;2023-04-05T07:40:00;96491.28;;;0.57;100.00
15229;BME280;7717;47.792;12.076;2023-04-05T07:42:26;96484.03;;;0.44;100.00
15229;BME280;7717;47.792;12.076;2023-04-05T07:44:52;96480.50;;;0.39;100.00
15229;BME280;7717;47.792;12.076;2023-04-05T07:47:17;96491.00;;;0.28;100.00
15229;BME280;7717;47.792;12.076;2023-04-05T07:49:43;96477.13;;;0.82;100.00
15229;BME280;7717;47.792;12.076;2023-04-05T07:52:08;96481.47;;;1.08;100.00
15229;BME280;7717;47.792;12.076;2023-04-05T07:54:33;96475.16;;;1.20;100.00
15229;BME280;7717;47.792;12.076;2023-04-05T07:56:59;96480.78;;;1.13;100.00
15229;BME280;7717;47.792;12.076;2023-04-05T07:59:25;96478.44;;;1.41;100.00
15229;BME280;7717;47.792;12.076;2023-04-05T08:01:51;96479.84;;;1.57;100.00
15229;BME280;7717;47.792;12.076;2023-04-05T08:04:17;96477.38;;;1.35;100.00
15229;BME280;7717;47.792;12.076;2023-04-05T08:06:43;96461.50;;;1.61;100.00
15229;BME280;7717;47.792;12.076;2023-04-05T08:09:09;96478.28;;;1.85;100.00
15229;BME280;7717;47.792;12.076;2023-04-05T08:11:34;96466.06;;;1.97;100.00
15229;BME280;7717;47.792;12.076;2023-04-05T08:14:00;96459.94;;;2.42;100.00
15229;BME280;7717;47.792;12.076;2023-04-05T08:16:26;96466.03;;;2.49;99.22
15229;BME280;7717;47.792;12.076;2023-04-05T08:18:51;96453.81;;;2.63;97.77
15229;BME280;7717;47.792;12.076;2023-04-05T08:21:16;96470.50;;;2.85;99.46
15229;BME280;7717;47.792;12.076;2023-04-05T08:23:42;96480.72;;;3.18;100.00
15229;BME280;7717;47.792;12.076;2023-04-05T08:26:07;96484.75;;;3.42;100.00
15229;BME280;7717;47.792;12.076;2023-04-05T08:28:33;96425.34;;;2.97;93.01
15229;BME280;7717;47.792;12.076;2023-04-05T08:30:59;96437.72;;;3.49;92.69
15229;BME280;7717;47.792;12.076;2023-04-05T08:33:25;96454.00;;;3.90;95.57
15229;BME280;7717;47.792;12.076;2023-04-05T08:35:52;96453.59;;;4.08;94.64
15229;BME280;7717;47.792;12.076;2023-04-05T08:38:17;96449.84;;;3.92;93.04
15229;BME280;7717;47.792;12.076;2023-04-05T08:40:45;96469.75;;;4.48;94.50
15229;BME280;7717;47.792;12.076;2023-04-05T08:45:49;96395.41;;;4.86;87.24
15229;BME280;7717;47.792;12.076;2023-04-05T08:48:16;96382.41;;;5.13;85.05
15229;BME280;7717;47.792;12.076;2023-04-05T08:50:41;96418.53;;;5.44;87.09
15229;BME280;7717;47.792;12.076;2023-04-05T08:53:08;96386.47;;;7.14;84.69
15229;BME280;7717;47.792;12.076;2023-04-05T08:55:38;96252.81;;;9.52;74.43
15229;BME280;7717;47.792;12.076;2023-04-05T08:58:06;96244.28;;;9.67;70.22
15229;BME280;7717;47.792;12.076;2023-04-05T09:00:35;96209.38;;;11.61;67.79
15229;BME280;7717;47.792;12.076;2023-04-05T09:03:01;96267.06;;;10.90;69.57
15229;BME280;7717;47.792;12.076;2023-04-05T09:05:27;96196.72;;;12.35;64.46
15229;BME280;7717;47.792;12.076;2023-04-05T09:07:57;96177.75;;;13.68;62.67
15229;BME280;7717;47.792;12.076;2023-04-05T09:10:23;96264.78;;;13.39;67.43
15229;BME280;7717;47.792;12.076;2023-04-05T09:12:51;96178.25;;;12.04;60.85
15229;BME280;7717;47.792;12.076;2023-04-05T09:15:17;96224.16;;;13.00;63.43
15229;BME280;7717;47.792;12.076;2023-04-05T09:17:46;96165.03;;;12.39;59.07
15229;BME280;7717;47.792;12.076;2023-04-05T09:20:12;96332.56;;;12.55;70.06
15229;BME280;7717;47.792;12.076;2023-04-05T09:22:42;96376.69;;;12.96;72.46
15229;BME280;7717;47.792;12.076;2023-04-05T09:25:09;96146.06;;;13.12;57.81
15229;BME280;7717;47.792;12.076;2023-04-05T09:27:35;96174.22;;;15.07;60.19
15229;BME280;7717;47.792;12.076;2023-04-05T09:30:00;96230.84;;;13.73;62.85
15229;BME280;7717;47.792;12.076;2023-04-05T09:32:26;96242.78;;;13.77;63.33
15229;BME280;7717;47.792;12.076;2023-04-05T09:34:57;96270.97;;;14.81;64.82
15229;BME280;7717;47.792;12.076;2023-04-05T09:37:25;96199.81;;;13.82;59.97
15229;BME280;7717;47.792;12.076;2023-04-05T09:40:01;96136.78;;;12.41;53.97
15229;BME280;7717;47.792;12.076;2023-04-05T09:42:29;96230.84;;;13.73;61.12
15229;BME280;7717;47.792;12.076;2023-04-05T09:44:57;96341.88;;;15.02;69.68
15229;BME280;7717;47.792;12.076;2023-04-05T09:47:28;96258.50;;;15.02;63.46
15229;BME280;7717;47.792;12.076;2023-04-05T09:50:04;96102.03;;;15.43;54.25
15229;BME280;7717;47.792;12.076;2023-04-05T09:52:42;96214.41;;;14.28;60.46
15229;BME280;7717;47.792;12.076;2023-04-05T09:55:09;96036.72;;;14.70;50.05
15229;BME280;7717;47.792;12.076;2023-04-05T09:57:39;96116.97;;;15.97;54.18
15229;BME280;7717;47.792;12.076;2023-04-05T10:00:07;96307.06;;;14.80;67.39
15229;BME280;7717;47.792;12.076;2023-04-05T10:02:41;96299.66;;;10.43;62.30
15229;BME280;7717;47.792;12.076;2023-04-05T10:05:07;96425.22;;;8.59;70.93
15229;BME280;7717;47.792;12.076;2023-04-05T10:07:38;96429.16;;;8.20;70.42
15229;BME280;7717;47.792;12.076;2023-04-05T10:10:03;96463.41;;;8.48;72.84
15229;BME280;7717;47.792;12.076;2023-04-05T10:12:31;96334.56;;;9.36;63.10
15229;BME280;7717;47.792;12.076;2023-04-05T10:14:57;96290.56;;;14.42;64.28
15229;BME280;7717;47.792;12.076;2023-04-05T10:18:09;96113.38;;;13.20;52.53
15229;BME280;7717;47.792;12.076;2023-04-05T10:20:22;96054.94;;;15.35;49.54
15229;BME280;7717;47.792;12.076;2023-04-05T10:23:20;95914.88;;;18.21;43.79
15229;BME280;7717;47.792;12.076;2023-04-05T10:25:59;95995.84;;;18.26;46.96
15229;BME280;7717;47.792;12.076;2023-04-05T10:28:35;96061.88;;;15.98;49.20
15229;BME280;7717;47.792;12.076;2023-04-05T10:33:45;96017.63;;;17.73;47.72
15229;BME280;7717;47.792;12.076;2023-04-05T10:39:27;96188.78;;;17.08;58.99
15229;BME280;7717;47.792;12.076;2023-04-05T10:42:01;96065.72;;;14.39;47.90
15229;BME280;7717;47.792;12.076;2023-04-05T10:44:31;96017.00;;;13.46;45.91
15229;BME280;7717;47.792;12.076;2023-04-05T10:46:58;96063.19;;;12.40;47.55
15229;BME280;7717;47.792;12.076;2023-04-05T10:51:56;96174.31;;;11.67;54.03
15229;BME280;7717;47.792;12.076;2023-04-05T10:54:21;96104.94;;;13.65;50.51
15229;BME280;7717;47.792;12.076;2023-04-05T10:56:47;96154.22;;;15.53;55.06
15229;BME280;7717;47.792;12.076;2023-04-05T10:59:14;96128.66;;;14.26;52.83
15229;BME280;7717;47.792;12.076;2023-04-05T11:01:41;96045.38;;;16.04;47.73
15229;BME280;7717;47.792;12.076;2023-04-05T11:04:11;96115.81;;;17.52;53.44
15229;BME280;7717;47.792;12.076;2023-04-05T11:06:37;96009.81;;;17.24;47.09
15229;BME280;7717;47.792;12.076;2023-04-05T11:09:16;95943.16;;;15.97;43.29
15229;BME280;7717;47.792;12.076;2023-04-05T11:11:49;96015.50;;;17.08;46.43
15229;BME280;7717;47.792;12.076;2023-04-05T11:16:58;96148.44;;;16.73;55.62
15229;BME280;7717;47.792;12.076;2023-04-05T11:22:08;96202.66;;;16.12;60.17
15229;BME280;7717;47.792;12.076;2023-04-05T11:27:29;95980.38;;;16.48;44.09
15229;BME280;7717;47.792;12.076;2023-04-05T11:29:57;96070.38;;;13.31;49.75
15229;BME280;7717;47.792;12.076;2023-04-05T11:32:23;96064.84;;;17.54;51.74
15229;BME280;7717;47.792;12.076;2023-04-05T11:34:59;95994.28;;;16.99;45.53
15229;BME280;7717;47.792;12.076;2023-04-05T11:37:53;95919.06;;;17.05;42.38
15229;BME280;7717;47.792;12.076;2023-04-05T11:40:52;95882.41;;;15.57;39.98
15229;BME280;7717;47.792;12.076;2023-04-05T11:43:29;96066.16;;;16.29;51.23
15229;BME280;7717;47.792;12.076;2023-04-05T11:45:54;95994.09;;;17.30;47.65
15229;BME280;7717;47.792;12.076;2023-04-05T11:48:21;95957.06;;;18.24;45.61
15229;BME280;7717;47.792;12.076;2023-04-05T11:50:46;96038.66;;;16.57;49.12
15229;BME280;7717;47.792;12.076;2023-04-05T11:53:16;96036.22;;;16.22;49.83
15229;BME280;7717;47.792;12.076;2023-04-05T11:55:47;96024.06;;;16.55;47.76
15229;BME280;7717;47.792;12.076;2023-04-05T11:58:17;96020.44;;;18.38;47.44
15229;BME280;7717;47.792;12.076;2023-04-05T12:01:00;95896.56;;;18.68;41.58
15229;BME280;7717;47.792;12.076;2023-04-05T12:03:26;95954.56;;;18.65;45.11
15229;BME280;7717;47.792;12.076;2023-04-05T12:05:59;95981.53;;;18.61;47.12
15229;BME280;7717;47.792;12.076;2023-04-05T12:08:40;95950.00;;;15.37;42.68
15229;BME280;7717;47.792;12.076;2023-04-05T12:11:08;95893.41;;;13.94;39.71
15229;BME280;7717;47.792;12.076;2023-04-05T12:13:34;95965.25;;;14.43;44.10
15229;BME280;7717;47.792;12.076;2023-04-05T12:16:02;96051.25;;;17.22;50.23
15229;BME280;7717;47.792;12.076;2023-04-05T12:18:30;96004.72;;;18.64;48.45
15229;BME280;7717;47.792;12.076;2023-04-05T12:20:55;96025.88;;;19.40;51.61
15229;BME280;7717;47.792;12.076;2023-04-05T12:23:23;96003.13;;;17.92;47.64
15229;BME280;7717;47.792;12.076;2023-04-05T12:25:50;96110.75;;;15.37;54.79
15229;BME280;7717;47.792;12.076;2023-04-05T12:28:16;96129.41;;;14.73;55.44
15229;BME280;7717;47.792;12.076;2023-04-05T12:30:52;96023.78;;;13.94;45.59
15229;BME280;7717;47.792;12.076;2023-04-05T12:33:32;96060.25;;;13.71;47.58
15229;BME280;7717;47.792;12.076;2023-04-05T12:35:59;96131.91;;;14.76;55.35
15229;BME280;7717;47.792;12.076;2023-04-05T12:38:28;96094.22;;;12.21;50.15
15229;BME280;7717;47.792;12.076;2023-04-05T12:41:03;96052.53;;;13.22;46.96
15229;BME280;7717;47.792;12.076;2023-04-05T12:43:42;96017.72;;;11.83;45.28
15229;BME280;7717;47.792;12.076;2023-04-05T12:46:16;96036.59;;;14.76;46.89
15229;BME280;7717;47.792;12.076;2023-04-05T12:48:42;96027.41;;;16.58;49.37
15229;BME280;7717;47.792;12.076;2023-04-05T12:51:17;95967.88;;;18.12;45.07
15229;BME280;7717;47.792;12.076;2023-04-05T12:53:45;95987.25;;;18.02;47.75
15229;BME280;7717;47.792;12.076;2023-04-05T12:56:12;95960.53;;;19.51;46.96
15229;BME280;7717;47.792;12.076;2023-04-05T12:58:47;95970.69;;;19.56;47.38
15229;BME280;7717;47.792;12.076;2023-04-05T13:01:16;95839.03;;;18.17;40.46
15229;BME280;7717;47.792;12.076;2023-04-05T13:03:44;96004.81;;;16.64;47.87
15229;BME280;7717;47.792;12.076;2023-04-05T13:06:10;95971.00;;;18.64;47.57
15229;BME280;7717;47.792;12.076;2023-04-05T13:08:35;96047.88;;;19.52;53.37
15229;BME280;7717;47.792;12.076;2023-04-05T13:11:01;95848.81;;;17.17;40.40
15229;BME280;7717;47.792;12.076;2023-04-05T13:13:26;95926.69;;;18.06;43.95
15229;BME280;7717;47.792;12.076;2023-04-05T13:15:54;96055.94;;;18.12;52.58
15229;BME280;7717;47.792;12.076;2023-04-05T13:18:20;96019.16;;;17.78;49.32
15229;BME280;7717;47.792;12.076;2023-04-05T13:20:45;96040.69;;;17.02;50.67
15229;BME280;7717;47.792;12.076;2023-04-05T13:23:11;95955.84;;;18.33;46.08
15229;BME280;7717;47.792;12.076;2023-04-05T13:25:38;95906.66;;;18.31;45.15
15229;BME280;7717;47.792;12.076;2023-04-05T13:28:03;96003.66;;;16.46;49.29
15229;BME280;7717;47.792;12.076;2023-04-05T13:30:32;95999.13;;;15.32;46.51